アテネ の空港の天気 - METARとTAF

アテネ国際空港 ( LGAV / ATH ) - ギリシャ アテネ
飛行場実況気象(Metar)
観測時間08/13 09:20 EEST (08/13 06:20 UTC)
風向・風速北 6m/s
視程10km以上
天気現象
なし
気温29℃
湿度37%
気圧1014hPa
METARLGAV 130620Z 01012KT CAVOK 29/13 Q1014 NOSIG
過去の天気等 Google飛行場航空写真 Wunderground天気予報

過去48時間のMETAR

飛行場予報(TAF)
発表時間: 8/13 08:00 EEST (8/13 05:00 UTC)
予報対象時間: 13日9時 EEST ~ 14日9時 EEST
風向・風速北 8m/s
視程10km以上
少しの雲 雲底高度 760m
13日12時 EEST ~ 13日18時 EEST に一時的に
風向・風速北 8m/s 瞬間風速 13m/s
少しの雲 雲底高度 610m
全天の8割程度の雲 雲底高度 1220m
TAF LGAV 130500Z 1306/1406 01015KT 9999 FEW025
TEMPO 1309/1315 01015G25KT FEW020 BKN040